sensor_id;sensor_type;location;lat;lon;timestamp;P1;durP1;ratioP1;P2;durP2;ratioP2
49548;SDS011;35450;44.518;7.466;2022-12-07T00:02:43;10.38;;;6.18;;
49548;SDS011;35450;44.518;7.466;2022-12-07T00:05:46;8.40;;;5.68;;
49548;SDS011;35450;44.518;7.466;2022-12-07T00:08:50;7.03;;;5.00;;
49548;SDS011;35450;44.518;7.466;2022-12-07T00:11:54;5.80;;;4.47;;
49548;SDS011;35450;44.518;7.466;2022-12-07T00:14:59;6.68;;;4.20;;
49548;SDS011;35450;44.518;7.466;2022-12-07T00:18:04;4.95;;;3.80;;
49548;SDS011;35450;44.518;7.466;2022-12-07T00:21:09;4.20;;;3.33;;
49548;SDS011;35450;44.518;7.466;2022-12-07T00:24:22;6.70;;;4.55;;
49548;SDS011;35450;44.518;7.466;2022-12-07T00:27:27;5.93;;;3.95;;
49548;SDS011;35450;44.518;7.466;2022-12-07T00:30:31;8.68;;;5.75;;
49548;SDS011;35450;44.518;7.466;2022-12-07T00:33:35;10.15;;;6.60;;
49548;SDS011;35450;44.518;7.466;2022-12-07T00:36:39;6.07;;;4.43;;
49548;SDS011;35450;44.518;7.466;2022-12-07T00:39:43;4.82;;;3.47;;
49548;SDS011;35450;44.518;7.466;2022-12-07T00:42:49;4.00;;;2.55;;
49548;SDS011;35450;44.518;7.466;2022-12-07T00:45:54;5.90;;;2.45;;
49548;SDS011;35450;44.518;7.466;2022-12-07T00:48:58;6.30;;;2.65;;
49548;SDS011;35450;44.518;7.466;2022-12-07T00:52:02;8.85;;;4.97;;
49548;SDS011;35450;44.518;7.466;2022-12-07T00:55:06;7.32;;;4.55;;
49548;SDS011;35450;44.518;7.466;2022-12-07T00:58:10;8.88;;;5.50;;
49548;SDS011;35450;44.518;7.466;2022-12-07T01:01:14;9.18;;;6.40;;
49548;SDS011;35450;44.518;7.466;2022-12-07T01:04:18;8.77;;;6.10;;
49548;SDS011;35450;44.518;7.466;2022-12-07T01:07:22;6.40;;;4.05;;
49548;SDS011;35450;44.518;7.466;2022-12-07T01:10:26;10.02;;;6.90;;
49548;SDS011;35450;44.518;7.466;2022-12-07T01:13:31;7.05;;;4.90;;
49548;SDS011;35450;44.518;7.466;2022-12-07T01:16:35;9.13;;;5.28;;
49548;SDS011;35450;44.518;7.466;2022-12-07T01:19:42;8.30;;;5.47;;
49548;SDS011;35450;44.518;7.466;2022-12-07T01:22:46;8.18;;;5.05;;
49548;SDS011;35450;44.518;7.466;2022-12-07T01:25:54;5.43;;;3.53;;
49548;SDS011;35450;44.518;7.466;2022-12-07T01:28:58;8.15;;;3.67;;
49548;SDS011;35450;44.518;7.466;2022-12-07T01:32:04;4.68;;;3.40;;
49548;SDS011;35450;44.518;7.466;2022-12-07T01:35:08;5.53;;;3.58;;
49548;SDS011;35450;44.518;7.466;2022-12-07T01:38:12;7.22;;;4.75;;
49548;SDS011;35450;44.518;7.466;2022-12-07T01:41:15;10.68;;;7.40;;
49548;SDS011;35450;44.518;7.466;2022-12-07T01:44:24;9.32;;;5.15;;
49548;SDS011;35450;44.518;7.466;2022-12-07T01:47:33;7.15;;;4.97;;
49548;SDS011;35450;44.518;7.466;2022-12-07T01:50:37;7.45;;;4.75;;
49548;SDS011;35450;44.518;7.466;2022-12-07T01:53:43;6.57;;;4.70;;
49548;SDS011;35450;44.518;7.466;2022-12-07T01:56:51;8.60;;;6.65;;
49548;SDS011;35450;44.518;7.466;2022-12-07T01:59:58;11.23;;;6.43;;
49548;SDS011;35450;44.518;7.466;2022-12-07T02:03:24;9.35;;;6.60;;
49548;SDS011;35450;44.518;7.466;2022-12-07T02:06:33;11.27;;;7.43;;
49548;SDS011;35450;44.518;7.466;2022-12-07T02:09:38;17.20;;;9.43;;
49548;SDS011;35450;44.518;7.466;2022-12-07T02:12:43;13.25;;;8.27;;
49548;SDS011;35450;44.518;7.466;2022-12-07T02:29:38;15.68;;;10.07;;
49548;SDS011;35450;44.518;7.466;2022-12-07T02:35:59;17.17;;;9.43;;
49548;SDS011;35450;44.518;7.466;2022-12-07T02:39:18;11.85;;;8.15;;
49548;SDS011;35450;44.518;7.466;2022-12-07T02:42:37;11.98;;;7.80;;
49548;SDS011;35450;44.518;7.466;2022-12-07T02:45:47;13.05;;;8.93;;
49548;SDS011;35450;44.518;7.466;2022-12-07T02:48:53;9.50;;;6.78;;
49548;SDS011;35450;44.518;7.466;2022-12-07T02:51:57;7.63;;;5.70;;
49548;SDS011;35450;44.518;7.466;2022-12-07T02:55:02;11.98;;;7.90;;
49548;SDS011;35450;44.518;7.466;2022-12-07T02:58:17;10.88;;;7.07;;
49548;SDS011;35450;44.518;7.466;2022-12-07T03:08:10;13.95;;;9.07;;
49548;SDS011;35450;44.518;7.466;2022-12-07T03:11:29;13.82;;;9.20;;
49548;SDS011;35450;44.518;7.466;2022-12-07T03:14:58;18.25;;;8.30;;
49548;SDS011;35450;44.518;7.466;2022-12-07T03:18:14;10.73;;;7.88;;
49548;SDS011;35450;44.518;7.466;2022-12-07T03:21:34;13.75;;;8.52;;
49548;SDS011;35450;44.518;7.466;2022-12-07T03:24:44;25.27;;;12.43;;
49548;SDS011;35450;44.518;7.466;2022-12-07T03:28:02;20.30;;;12.77;;
49548;SDS011;35450;44.518;7.466;2022-12-07T03:34:34;11.57;;;7.75;;
49548;SDS011;35450;44.518;7.466;2022-12-07T03:37:46;13.43;;;8.95;;
49548;SDS011;35450;44.518;7.466;2022-12-07T03:40:59;15.27;;;10.20;;
49548;SDS011;35450;44.518;7.466;2022-12-07T03:44:09;14.40;;;10.40;;
49548;SDS011;35450;44.518;7.466;2022-12-07T03:50:35;10.85;;;6.15;;
49548;SDS011;35450;44.518;7.466;2022-12-07T03:53:58;5.68;;;4.05;;
49548;SDS011;35450;44.518;7.466;2022-12-07T03:57:14;6.80;;;4.38;;
49548;SDS011;35450;44.518;7.466;2022-12-07T04:00:20;10.20;;;6.28;;
49548;SDS011;35450;44.518;7.466;2022-12-07T04:03:26;11.50;;;7.05;;
49548;SDS011;35450;44.518;7.466;2022-12-07T04:06:30;11.10;;;7.22;;
49548;SDS011;35450;44.518;7.466;2022-12-07T04:09:34;12.80;;;6.60;;
49548;SDS011;35450;44.518;7.466;2022-12-07T04:12:39;12.93;;;8.23;;
49548;SDS011;35450;44.518;7.466;2022-12-07T04:15:43;10.27;;;6.93;;
49548;SDS011;35450;44.518;7.466;2022-12-07T04:18:47;14.13;;;9.07;;
49548;SDS011;35450;44.518;7.466;2022-12-07T04:21:51;13.88;;;8.88;;
49548;SDS011;35450;44.518;7.466;2022-12-07T04:24:56;12.95;;;8.95;;
49548;SDS011;35450;44.518;7.466;2022-12-07T04:28:00;10.27;;;7.40;;
49548;SDS011;35450;44.518;7.466;2022-12-07T04:31:04;10.73;;;7.55;;
49548;SDS011;35450;44.518;7.466;2022-12-07T04:34:08;13.40;;;8.82;;
49548;SDS011;35450;44.518;7.466;2022-12-07T04:37:12;12.55;;;8.38;;
49548;SDS011;35450;44.518;7.466;2022-12-07T04:40:16;11.35;;;7.75;;
49548;SDS011;35450;44.518;7.466;2022-12-07T04:43:20;13.57;;;8.90;;
49548;SDS011;35450;44.518;7.466;2022-12-07T04:46:24;16.73;;;9.82;;
49548;SDS011;35450;44.518;7.466;2022-12-07T04:49:29;15.48;;;10.57;;
49548;SDS011;35450;44.518;7.466;2022-12-07T04:52:33;17.48;;;11.98;;
49548;SDS011;35450;44.518;7.466;2022-12-07T04:55:37;18.77;;;12.10;;
49548;SDS011;35450;44.518;7.466;2022-12-07T04:58:42;19.52;;;12.95;;
49548;SDS011;35450;44.518;7.466;2022-12-07T05:01:47;17.67;;;12.63;;
49548;SDS011;35450;44.518;7.466;2022-12-07T05:04:51;19.05;;;11.65;;
49548;SDS011;35450;44.518;7.466;2022-12-07T05:07:55;17.70;;;11.98;;
49548;SDS011;35450;44.518;7.466;2022-12-07T05:10:59;17.02;;;11.70;;
49548;SDS011;35450;44.518;7.466;2022-12-07T05:14:04;17.50;;;11.65;;
49548;SDS011;35450;44.518;7.466;2022-12-07T05:17:09;13.55;;;9.60;;
49548;SDS011;35450;44.518;7.466;2022-12-07T05:20:14;16.65;;;11.50;;
49548;SDS011;35450;44.518;7.466;2022-12-07T05:23:19;16.75;;;10.85;;
49548;SDS011;35450;44.518;7.466;2022-12-07T05:26:23;12.77;;;9.02;;
49548;SDS011;35450;44.518;7.466;2022-12-07T05:29:28;10.73;;;7.03;;
49548;SDS011;35450;44.518;7.466;2022-12-07T05:32:32;8.32;;;5.32;;
49548;SDS011;35450;44.518;7.466;2022-12-07T05:35:36;17.35;;;10.68;;
49548;SDS011;35450;44.518;7.466;2022-12-07T05:38:41;9.85;;;7.15;;
49548;SDS011;35450;44.518;7.466;2022-12-07T05:41:45;11.45;;;7.60;;
49548;SDS011;35450;44.518;7.466;2022-12-07T05:45:08;13.32;;;8.48;;
49548;SDS011;35450;44.518;7.466;2022-12-07T05:48:13;12.77;;;9.23;;
49548;SDS011;35450;44.518;7.466;2022-12-07T05:51:17;13.15;;;8.32;;
49548;SDS011;35450;44.518;7.466;2022-12-07T05:54:21;12.48;;;8.32;;
49548;SDS011;35450;44.518;7.466;2022-12-07T05:57:25;12.65;;;7.97;;
49548;SDS011;35450;44.518;7.466;2022-12-07T06:00:29;12.75;;;8.02;;
49548;SDS011;35450;44.518;7.466;2022-12-07T06:03:33;13.85;;;8.68;;
49548;SDS011;35450;44.518;7.466;2022-12-07T06:06:37;12.65;;;8.48;;
49548;SDS011;35450;44.518;7.466;2022-12-07T06:09:41;13.73;;;9.25;;
49548;SDS011;35450;44.518;7.466;2022-12-07T06:12:45;15.05;;;10.32;;
49548;SDS011;35450;44.518;7.466;2022-12-07T06:15:49;52.17;;;29.50;;
49548;SDS011;35450;44.518;7.466;2022-12-07T06:18:53;18.48;;;12.73;;
49548;SDS011;35450;44.518;7.466;2022-12-07T06:21:57;19.38;;;12.85;;
49548;SDS011;35450;44.518;7.466;2022-12-07T06:25:02;18.20;;;13.07;;
49548;SDS011;35450;44.518;7.466;2022-12-07T06:28:07;19.73;;;12.73;;
49548;SDS011;35450;44.518;7.466;2022-12-07T06:31:11;17.92;;;12.93;;
49548;SDS011;35450;44.518;7.466;2022-12-07T06:34:16;20.27;;;14.43;;
49548;SDS011;35450;44.518;7.466;2022-12-07T06:37:21;22.40;;;14.73;;
49548;SDS011;35450;44.518;7.466;2022-12-07T06:40:25;17.27;;;12.57;;
49548;SDS011;35450;44.518;7.466;2022-12-07T06:43:29;21.20;;;14.77;;
49548;SDS011;35450;44.518;7.466;2022-12-07T06:46:33;21.23;;;13.93;;
49548;SDS011;35450;44.518;7.466;2022-12-07T06:49:38;19.23;;;12.48;;
49548;SDS011;35450;44.518;7.466;2022-12-07T06:52:42;18.42;;;12.07;;
49548;SDS011;35450;44.518;7.466;2022-12-07T06:55:46;17.52;;;11.30;;
49548;SDS011;35450;44.518;7.466;2022-12-07T06:58:50;18.60;;;11.20;;
49548;SDS011;35450;44.518;7.466;2022-12-07T07:01:54;17.02;;;11.55;;
49548;SDS011;35450;44.518;7.466;2022-12-07T07:04:58;16.55;;;11.25;;
49548;SDS011;35450;44.518;7.466;2022-12-07T07:08:02;22.70;;;13.57;;
49548;SDS011;35450;44.518;7.466;2022-12-07T07:11:07;20.83;;;14.13;;
49548;SDS011;35450;44.518;7.466;2022-12-07T07:14:12;22.02;;;13.70;;
49548;SDS011;35450;44.518;7.466;2022-12-07T07:17:19;20.85;;;12.93;;
49548;SDS011;35450;44.518;7.466;2022-12-07T07:20:23;20.40;;;13.00;;
49548;SDS011;35450;44.518;7.466;2022-12-07T07:23:28;18.40;;;13.23;;
49548;SDS011;35450;44.518;7.466;2022-12-07T07:26:32;17.90;;;12.88;;
49548;SDS011;35450;44.518;7.466;2022-12-07T07:29:36;40.38;;;17.50;;
49548;SDS011;35450;44.518;7.466;2022-12-07T07:32:40;39.80;;;23.88;;
49548;SDS011;35450;44.518;7.466;2022-12-07T07:35:44;28.73;;;18.98;;
49548;SDS011;35450;44.518;7.466;2022-12-07T07:38:48;28.33;;;20.10;;
49548;SDS011;35450;44.518;7.466;2022-12-07T07:41:52;46.67;;;27.42;;
49548;SDS011;35450;44.518;7.466;2022-12-07T07:45:02;35.08;;;22.00;;
49548;SDS011;35450;44.518;7.466;2022-12-07T07:48:07;30.33;;;18.85;;
49548;SDS011;35450;44.518;7.466;2022-12-07T07:51:11;31.42;;;18.35;;
49548;SDS011;35450;44.518;7.466;2022-12-07T07:54:16;23.33;;;15.52;;
49548;SDS011;35450;44.518;7.466;2022-12-07T07:57:20;29.85;;;20.60;;
49548;SDS011;35450;44.518;7.466;2022-12-07T08:00:23;25.63;;;17.27;;
49548;SDS011;35450;44.518;7.466;2022-12-07T08:03:27;93.82;;;39.55;;
49548;SDS011;35450;44.518;7.466;2022-12-07T08:06:32;150.07;;;64.68;;
49548;SDS011;35450;44.518;7.466;2022-12-07T08:09:35;136.55;;;63.67;;
49548;SDS011;35450;44.518;7.466;2022-12-07T08:12:40;110.28;;;55.63;;
49548;SDS011;35450;44.518;7.466;2022-12-07T08:16:05;118.50;;;60.20;;
49548;SDS011;35450;44.518;7.466;2022-12-07T08:19:11;100.35;;;53.33;;
49548;SDS011;35450;44.518;7.466;2022-12-07T08:22:15;80.20;;;44.85;;
49548;SDS011;35450;44.518;7.466;2022-12-07T08:25:20;67.90;;;34.70;;
49548;SDS011;35450;44.518;7.466;2022-12-07T08:28:25;62.50;;;36.05;;
49548;SDS011;35450;44.518;7.466;2022-12-07T08:31:30;72.45;;;39.85;;
49548;SDS011;35450;44.518;7.466;2022-12-07T08:34:34;57.42;;;34.22;;
49548;SDS011;35450;44.518;7.466;2022-12-07T08:37:39;53.58;;;30.95;;
49548;SDS011;35450;44.518;7.466;2022-12-07T08:40:43;51.47;;;30.27;;
49548;SDS011;35450;44.518;7.466;2022-12-07T08:43:47;48.80;;;29.40;;
49548;SDS011;35450;44.518;7.466;2022-12-07T08:46:53;41.45;;;26.02;;
49548;SDS011;35450;44.518;7.466;2022-12-07T08:50:02;44.22;;;26.45;;
49548;SDS011;35450;44.518;7.466;2022-12-07T08:53:09;39.60;;;25.45;;
49548;SDS011;35450;44.518;7.466;2022-12-07T08:56:13;36.10;;;23.08;;
49548;SDS011;35450;44.518;7.466;2022-12-07T08:59:17;42.72;;;26.50;;
49548;SDS011;35450;44.518;7.466;2022-12-07T09:02:22;40.05;;;25.70;;
49548;SDS011;35450;44.518;7.466;2022-12-07T09:05:27;45.72;;;26.85;;
49548;SDS011;35450;44.518;7.466;2022-12-07T09:08:35;39.08;;;24.30;;
49548;SDS011;35450;44.518;7.466;2022-12-07T09:11:43;30.15;;;21.02;;
49548;SDS011;35450;44.518;7.466;2022-12-07T09:14:48;35.03;;;22.13;;
49548;SDS011;35450;44.518;7.466;2022-12-07T09:17:52;34.80;;;21.90;;
49548;SDS011;35450;44.518;7.466;2022-12-07T09:20:57;40.85;;;23.30;;
49548;SDS011;35450;44.518;7.466;2022-12-07T09:24:00;45.63;;;25.33;;
49548;SDS011;35450;44.518;7.466;2022-12-07T09:27:05;33.83;;;22.52;;
49548;SDS011;35450;44.518;7.466;2022-12-07T09:30:09;36.55;;;24.65;;
49548;SDS011;35450;44.518;7.466;2022-12-07T09:33:13;38.55;;;24.20;;
49548;SDS011;35450;44.518;7.466;2022-12-07T09:36:18;40.05;;;24.25;;
49548;SDS011;35450;44.518;7.466;2022-12-07T09:39:22;44.75;;;24.30;;
49548;SDS011;35450;44.518;7.466;2022-12-07T09:45:34;40.30;;;25.17;;
49548;SDS011;35450;44.518;7.466;2022-12-07T09:48:40;41.20;;;23.65;;
49548;SDS011;35450;44.518;7.466;2022-12-07T09:51:46;36.85;;;21.42;;
49548;SDS011;35450;44.518;7.466;2022-12-07T09:54:51;35.78;;;22.60;;
49548;SDS011;35450;44.518;7.466;2022-12-07T09:57:55;31.50;;;22.05;;
49548;SDS011;35450;44.518;7.466;2022-12-07T10:01:05;34.13;;;22.35;;
49548;SDS011;35450;44.518;7.466;2022-12-07T10:04:23;33.13;;;22.25;;
49548;SDS011;35450;44.518;7.466;2022-12-07T10:07:29;33.88;;;21.27;;
49548;SDS011;35450;44.518;7.466;2022-12-07T10:10:33;32.50;;;22.45;;
49548;SDS011;35450;44.518;7.466;2022-12-07T10:13:49;33.28;;;21.90;;
49548;SDS011;35450;44.518;7.466;2022-12-07T10:16:57;31.65;;;21.95;;
49548;SDS011;35450;44.518;7.466;2022-12-07T10:23:28;33.10;;;20.60;;
49548;SDS011;35450;44.518;7.466;2022-12-07T10:29:42;33.22;;;22.48;;
49548;SDS011;35450;44.518;7.466;2022-12-07T10:32:55;34.67;;;23.35;;
49548;SDS011;35450;44.518;7.466;2022-12-07T10:35:59;37.90;;;22.52;;
49548;SDS011;35450;44.518;7.466;2022-12-07T10:42:19;38.13;;;24.88;;
49548;SDS011;35450;44.518;7.466;2022-12-07T10:45:25;34.65;;;23.85;;
49548;SDS011;35450;44.518;7.466;2022-12-07T10:55:23;36.53;;;24.15;;
49548;SDS011;35450;44.518;7.466;2022-12-07T11:09:22;38.35;;;24.60;;
49548;SDS011;35450;44.518;7.466;2022-12-07T11:16:36;36.38;;;24.15;;
49548;SDS011;35450;44.518;7.466;2022-12-07T11:30:12;30.33;;;21.20;;
49548;SDS011;35450;44.518;7.466;2022-12-07T11:43:37;30.67;;;19.52;;
49548;SDS011;35450;44.518;7.466;2022-12-07T11:46:16;28.48;;;20.15;;
49548;SDS011;35450;44.518;7.466;2022-12-07T11:59:29;29.48;;;19.70;;
49548;SDS011;35450;44.518;7.466;2022-12-07T12:02:42;27.27;;;18.27;;
49548;SDS011;35450;44.518;7.466;2022-12-07T12:05:59;29.73;;;17.95;;
49548;SDS011;35450;44.518;7.466;2022-12-07T12:22:51;27.95;;;18.38;;
49548;SDS011;35450;44.518;7.466;2022-12-07T12:26:03;30.70;;;18.98;;
49548;SDS011;35450;44.518;7.466;2022-12-07T12:29:21;27.88;;;19.25;;
49548;SDS011;35450;44.518;7.466;2022-12-07T12:32:41;28.38;;;18.70;;
49548;SDS011;35450;44.518;7.466;2022-12-07T12:35:47;25.65;;;18.70;;
49548;SDS011;35450;44.518;7.466;2022-12-07T12:39:23;26.70;;;17.13;;
49548;SDS011;35450;44.518;7.466;2022-12-07T12:42:43;25.27;;;17.95;;
49548;SDS011;35450;44.518;7.466;2022-12-07T12:45:48;26.40;;;18.60;;
49548;SDS011;35450;44.518;7.466;2022-12-07T12:48:52;30.85;;;18.08;;
49548;SDS011;35450;44.518;7.466;2022-12-07T12:51:58;30.08;;;18.45;;
49548;SDS011;35450;44.518;7.466;2022-12-07T13:04:53;28.40;;;18.73;;
49548;SDS011;35450;44.518;7.466;2022-12-07T13:08:02;27.75;;;18.38;;
49548;SDS011;35450;44.518;7.466;2022-12-07T13:11:31;28.48;;;17.40;;
49548;SDS011;35450;44.518;7.466;2022-12-07T13:14:51;27.08;;;17.92;;
49548;SDS011;35450;44.518;7.466;2022-12-07T13:18:02;27.55;;;17.10;;
49548;SDS011;35450;44.518;7.466;2022-12-07T13:24:12;26.80;;;15.93;;
49548;SDS011;35450;44.518;7.466;2022-12-07T13:27:17;26.95;;;17.33;;
49548;SDS011;35450;44.518;7.466;2022-12-07T13:30:22;28.27;;;17.58;;
49548;SDS011;35450;44.518;7.466;2022-12-07T13:33:27;26.23;;;17.90;;
49548;SDS011;35450;44.518;7.466;2022-12-07T13:36:36;24.55;;;17.30;;
49548;SDS011;35450;44.518;7.466;2022-12-07T13:39:45;26.65;;;17.85;;
49548;SDS011;35450;44.518;7.466;2022-12-07T13:43:02;27.25;;;17.63;;
49548;SDS011;35450;44.518;7.466;2022-12-07T13:46:08;25.85;;;16.58;;
49548;SDS011;35450;44.518;7.466;2022-12-07T13:52:29;26.00;;;17.42;;
49548;SDS011;35450;44.518;7.466;2022-12-07T13:55:34;24.40;;;17.48;;
49548;SDS011;35450;44.518;7.466;2022-12-07T13:58:38;26.48;;;16.70;;
49548;SDS011;35450;44.518;7.466;2022-12-07T14:01:42;26.58;;;17.75;;
49548;SDS011;35450;44.518;7.466;2022-12-07T14:04:50;24.90;;;17.33;;
49548;SDS011;35450;44.518;7.466;2022-12-07T14:11:04;25.77;;;17.83;;
49548;SDS011;35450;44.518;7.466;2022-12-07T14:14:23;33.45;;;19.60;;
49548;SDS011;35450;44.518;7.466;2022-12-07T14:17:32;26.02;;;17.90;;
49548;SDS011;35450;44.518;7.466;2022-12-07T14:20:37;25.48;;;17.35;;
49548;SDS011;35450;44.518;7.466;2022-12-07T14:23:43;29.77;;;20.27;;
49548;SDS011;35450;44.518;7.466;2022-12-07T14:26:48;25.55;;;17.52;;
49548;SDS011;35450;44.518;7.466;2022-12-07T14:29:53;23.90;;;17.98;;
49548;SDS011;35450;44.518;7.466;2022-12-07T14:33:01;26.92;;;18.80;;
49548;SDS011;35450;44.518;7.466;2022-12-07T14:36:10;31.92;;;19.42;;
49548;SDS011;35450;44.518;7.466;2022-12-07T14:39:16;26.38;;;18.70;;
49548;SDS011;35450;44.518;7.466;2022-12-07T14:42:20;28.63;;;19.50;;
49548;SDS011;35450;44.518;7.466;2022-12-07T14:45:27;31.10;;;19.75;;
49548;SDS011;35450;44.518;7.466;2022-12-07T14:48:32;28.80;;;19.38;;
49548;SDS011;35450;44.518;7.466;2022-12-07T14:51:37;26.65;;;18.08;;
49548;SDS011;35450;44.518;7.466;2022-12-07T14:54:43;26.27;;;18.83;;
49548;SDS011;35450;44.518;7.466;2022-12-07T14:57:47;29.83;;;18.40;;
49548;SDS011;35450;44.518;7.466;2022-12-07T15:00:52;30.05;;;19.58;;
49548;SDS011;35450;44.518;7.466;2022-12-07T15:03:56;26.10;;;17.70;;
49548;SDS011;35450;44.518;7.466;2022-12-07T15:07:08;40.75;;;21.88;;
49548;SDS011;35450;44.518;7.466;2022-12-07T15:10:26;40.50;;;20.17;;
49548;SDS011;35450;44.518;7.466;2022-12-07T15:13:33;33.10;;;19.38;;
49548;SDS011;35450;44.518;7.466;2022-12-07T15:20:00;31.55;;;18.23;;
49548;SDS011;35450;44.518;7.466;2022-12-07T15:23:04;27.60;;;17.38;;
49548;SDS011;35450;44.518;7.466;2022-12-07T15:26:09;30.55;;;18.48;;
49548;SDS011;35450;44.518;7.466;2022-12-07T15:29:14;32.83;;;18.45;;
49548;SDS011;35450;44.518;7.466;2022-12-07T15:32:19;29.73;;;19.38;;
49548;SDS011;35450;44.518;7.466;2022-12-07T15:35:23;39.05;;;19.95;;
49548;SDS011;35450;44.518;7.466;2022-12-07T15:38:26;28.33;;;19.25;;
49548;SDS011;35450;44.518;7.466;2022-12-07T15:41:32;28.23;;;18.77;;
49548;SDS011;35450;44.518;7.466;2022-12-07T15:44:36;25.63;;;17.95;;
49548;SDS011;35450;44.518;7.466;2022-12-07T15:51:04;30.55;;;17.88;;
49548;SDS011;35450;44.518;7.466;2022-12-07T15:54:19;26.45;;;18.10;;
49548;SDS011;35450;44.518;7.466;2022-12-07T15:57:24;26.42;;;18.30;;
49548;SDS011;35450;44.518;7.466;2022-12-07T16:00:28;28.80;;;18.05;;
49548;SDS011;35450;44.518;7.466;2022-12-07T16:03:32;30.75;;;17.92;;
49548;SDS011;35450;44.518;7.466;2022-12-07T16:06:35;30.05;;;17.98;;
49548;SDS011;35450;44.518;7.466;2022-12-07T16:09:40;26.83;;;17.70;;
49548;SDS011;35450;44.518;7.466;2022-12-07T16:12:45;28.23;;;18.30;;
49548;SDS011;35450;44.518;7.466;2022-12-07T16:15:50;26.98;;;18.08;;
49548;SDS011;35450;44.518;7.466;2022-12-07T16:18:54;26.38;;;18.75;;
49548;SDS011;35450;44.518;7.466;2022-12-07T16:21:58;28.30;;;15.80;;
49548;SDS011;35450;44.518;7.466;2022-12-07T16:25:02;28.60;;;18.50;;
49548;SDS011;35450;44.518;7.466;2022-12-07T16:28:07;27.40;;;17.73;;
49548;SDS011;35450;44.518;7.466;2022-12-07T16:31:12;25.67;;;17.63;;
49548;SDS011;35450;44.518;7.466;2022-12-07T16:34:18;27.45;;;17.73;;
49548;SDS011;35450;44.518;7.466;2022-12-07T16:37:22;30.77;;;20.83;;
49548;SDS011;35450;44.518;7.466;2022-12-07T16:40:26;74.68;;;37.75;;
49548;SDS011;35450;44.518;7.466;2022-12-07T16:43:30;88.18;;;46.67;;
49548;SDS011;35450;44.518;7.466;2022-12-07T16:46:34;67.70;;;39.13;;
49548;SDS011;35450;44.518;7.466;2022-12-07T16:49:39;53.90;;;32.17;;
49548;SDS011;35450;44.518;7.466;2022-12-07T16:52:43;36.30;;;22.70;;
49548;SDS011;35450;44.518;7.466;2022-12-07T16:55:47;38.25;;;19.52;;
49548;SDS011;35450;44.518;7.466;2022-12-07T16:58:51;34.30;;;20.75;;
49548;SDS011;35450;44.518;7.466;2022-12-07T17:01:55;29.65;;;19.38;;
49548;SDS011;35450;44.518;7.466;2022-12-07T17:04:59;64.88;;;37.35;;
49548;SDS011;35450;44.518;7.466;2022-12-07T17:08:03;37.53;;;21.40;;
49548;SDS011;35450;44.518;7.466;2022-12-07T17:11:15;32.15;;;20.25;;
49548;SDS011;35450;44.518;7.466;2022-12-07T17:14:24;30.08;;;18.60;;
49548;SDS011;35450;44.518;7.466;2022-12-07T17:18:04;27.08;;;17.90;;
49548;SDS011;35450;44.518;7.466;2022-12-07T17:21:08;28.27;;;19.08;;
49548;SDS011;35450;44.518;7.466;2022-12-07T17:24:13;28.88;;;18.70;;
49548;SDS011;35450;44.518;7.466;2022-12-07T17:27:18;32.65;;;22.05;;
49548;SDS011;35450;44.518;7.466;2022-12-07T17:30:22;32.75;;;20.63;;
49548;SDS011;35450;44.518;7.466;2022-12-07T17:33:26;30.13;;;20.75;;
49548;SDS011;35450;44.518;7.466;2022-12-07T17:36:31;51.53;;;30.23;;
49548;SDS011;35450;44.518;7.466;2022-12-07T17:39:35;50.90;;;27.38;;
49548;SDS011;35450;44.518;7.466;2022-12-07T17:42:39;139.32;;;63.88;;
49548;SDS011;35450;44.518;7.466;2022-12-07T17:45:43;44.20;;;26.52;;
49548;SDS011;35450;44.518;7.466;2022-12-07T17:48:47;33.50;;;20.50;;
49548;SDS011;35450;44.518;7.466;2022-12-07T17:51:51;29.73;;;20.00;;
49548;SDS011;35450;44.518;7.466;2022-12-07T17:55:14;32.88;;;21.40;;
49548;SDS011;35450;44.518;7.466;2022-12-07T17:58:19;32.67;;;21.27;;
49548;SDS011;35450;44.518;7.466;2022-12-07T18:01:24;34.65;;;20.58;;
49548;SDS011;35450;44.518;7.466;2022-12-07T18:04:28;35.22;;;21.23;;
49548;SDS011;35450;44.518;7.466;2022-12-07T18:07:32;32.38;;;21.15;;
49548;SDS011;35450;44.518;7.466;2022-12-07T18:10:36;40.67;;;23.58;;
49548;SDS011;35450;44.518;7.466;2022-12-07T18:13:40;33.65;;;21.65;;
49548;SDS011;35450;44.518;7.466;2022-12-07T18:16:44;36.03;;;22.25;;
49548;SDS011;35450;44.518;7.466;2022-12-07T18:19:48;36.85;;;24.15;;
49548;SDS011;35450;44.518;7.466;2022-12-07T18:22:52;34.40;;;22.30;;
49548;SDS011;35450;44.518;7.466;2022-12-07T18:25:56;33.78;;;22.17;;
49548;SDS011;35450;44.518;7.466;2022-12-07T18:29:00;33.35;;;21.67;;
49548;SDS011;35450;44.518;7.466;2022-12-07T18:32:05;34.75;;;22.30;;
49548;SDS011;35450;44.518;7.466;2022-12-07T18:35:09;33.20;;;21.90;;
49548;SDS011;35450;44.518;7.466;2022-12-07T18:38:13;68.18;;;32.03;;
49548;SDS011;35450;44.518;7.466;2022-12-07T18:41:18;45.15;;;25.75;;
49548;SDS011;35450;44.518;7.466;2022-12-07T18:44:22;34.63;;;21.30;;
49548;SDS011;35450;44.518;7.466;2022-12-07T18:47:26;38.40;;;25.20;;
49548;SDS011;35450;44.518;7.466;2022-12-07T18:50:30;38.33;;;26.50;;
49548;SDS011;35450;44.518;7.466;2022-12-07T18:53:35;39.33;;;24.98;;
49548;SDS011;35450;44.518;7.466;2022-12-07T18:56:39;34.75;;;23.63;;
49548;SDS011;35450;44.518;7.466;2022-12-07T18:59:43;32.72;;;21.55;;
49548;SDS011;35450;44.518;7.466;2022-12-07T19:02:50;39.30;;;25.13;;
49548;SDS011;35450;44.518;7.466;2022-12-07T19:05:56;37.58;;;22.75;;
49548;SDS011;35450;44.518;7.466;2022-12-07T19:09:00;39.75;;;25.38;;
49548;SDS011;35450;44.518;7.466;2022-12-07T19:12:05;44.22;;;28.27;;
49548;SDS011;35450;44.518;7.466;2022-12-07T19:15:10;44.92;;;26.50;;
49548;SDS011;35450;44.518;7.466;2022-12-07T19:18:14;47.40;;;30.40;;
49548;SDS011;35450;44.518;7.466;2022-12-07T19:21:18;63.22;;;37.72;;
49548;SDS011;35450;44.518;7.466;2022-12-07T19:24:22;37.63;;;24.13;;
49548;SDS011;35450;44.518;7.466;2022-12-07T19:27:26;34.63;;;22.50;;
49548;SDS011;35450;44.518;7.466;2022-12-07T19:30:30;38.20;;;24.58;;
49548;SDS011;35450;44.518;7.466;2022-12-07T19:33:34;37.03;;;23.17;;
49548;SDS011;35450;44.518;7.466;2022-12-07T19:36:38;32.50;;;21.05;;
49548;SDS011;35450;44.518;7.466;2022-12-07T19:39:42;29.73;;;19.27;;
49548;SDS011;35450;44.518;7.466;2022-12-07T19:42:48;27.90;;;19.08;;
49548;SDS011;35450;44.518;7.466;2022-12-07T19:45:52;26.75;;;17.63;;
49548;SDS011;35450;44.518;7.466;2022-12-07T19:48:57;26.45;;;17.75;;
49548;SDS011;35450;44.518;7.466;2022-12-07T19:52:04;23.40;;;15.88;;
49548;SDS011;35450;44.518;7.466;2022-12-07T19:55:09;28.38;;;18.48;;
49548;SDS011;35450;44.518;7.466;2022-12-07T19:58:13;27.35;;;18.33;;
49548;SDS011;35450;44.518;7.466;2022-12-07T20:01:17;27.85;;;17.77;;
49548;SDS011;35450;44.518;7.466;2022-12-07T20:04:25;27.15;;;16.75;;
49548;SDS011;35450;44.518;7.466;2022-12-07T20:07:31;25.92;;;13.57;;
49548;SDS011;35450;44.518;7.466;2022-12-07T20:10:39;20.00;;;12.90;;
49548;SDS011;35450;44.518;7.466;2022-12-07T20:13:43;22.55;;;14.43;;
49548;SDS011;35450;44.518;7.466;2022-12-07T20:16:47;20.13;;;11.75;;
49548;SDS011;35450;44.518;7.466;2022-12-07T20:19:52;28.33;;;15.85;;
49548;SDS011;35450;44.518;7.466;2022-12-07T20:22:55;21.70;;;13.20;;
49548;SDS011;35450;44.518;7.466;2022-12-07T20:26:04;17.70;;;11.95;;
49548;SDS011;35450;44.518;7.466;2022-12-07T20:29:10;21.00;;;10.50;;
49548;SDS011;35450;44.518;7.466;2022-12-07T20:32:17;15.90;;;9.98;;